createdAt,value
2022-11-14T00:01:08.857Z,21.60
2022-11-14T00:03:36.262Z,22.17
2022-11-14T00:06:06.965Z,20.85
2022-11-14T00:08:34.312Z,22.40
2022-11-14T00:11:02.467Z,22.23
2022-11-14T00:13:29.417Z,21.02
2022-11-14T00:15:56.447Z,22.02
2022-11-14T00:18:23.875Z,23.15
2022-11-14T00:20:54.527Z,23.27
2022-11-14T00:23:21.972Z,22.00
2022-11-14T00:25:49.604Z,22.60
2022-11-14T00:28:16.626Z,21.67
2022-11-14T00:30:49.606Z,22.95
2022-11-14T00:33:20.332Z,21.35
2022-11-14T00:35:53.061Z,21.48
2022-11-14T00:38:20.109Z,21.30
2022-11-14T00:40:47.154Z,19.45
2022-11-14T00:43:14.192Z,21.30
2022-11-14T00:45:44.671Z,22.35
2022-11-14T00:48:11.789Z,20.40
2022-11-14T00:50:38.786Z,21.08
2022-11-14T00:53:05.782Z,20.67
2022-11-14T00:55:32.813Z,21.67
2022-11-14T00:57:59.757Z,21.88
2022-11-14T01:00:27.108Z,20.02
2022-11-14T01:02:57.002Z,21.13
2022-11-14T01:05:25.334Z,21.15
2022-11-14T01:07:52.343Z,20.30
2022-11-14T01:10:19.904Z,20.55
2022-11-14T01:12:47.649Z,22.52
2022-11-14T01:15:14.646Z,22.02
2022-11-14T01:17:41.898Z,23.23
2022-11-14T01:20:09.140Z,18.40
2022-11-14T01:22:36.129Z,22.05
2022-11-14T01:25:03.229Z,20.98
2022-11-14T01:27:33.488Z,22.20
2022-11-14T01:30:00.400Z,21.58
2022-11-14T01:32:28.028Z,20.52
2022-11-14T01:34:55.200Z,22.45
2022-11-14T01:37:22.265Z,22.85
2022-11-14T01:39:49.208Z,23.25
2022-11-14T01:42:17.615Z,23.35
2022-11-14T01:44:54.139Z,22.25
2022-11-14T01:47:26.089Z,22.90
2022-11-14T01:50:04.984Z,21.77
2022-11-14T01:52:36.532Z,20.20
2022-11-14T01:55:07.348Z,21.85
2022-11-14T01:57:38.470Z,22.80
2022-11-14T02:00:09.280Z,19.60
2022-11-14T02:02:37.443Z,21.35
2022-11-14T02:05:07.874Z,21.73
2022-11-14T02:07:38.357Z,21.02
2022-11-14T02:10:16.363Z,21.75
2022-11-14T02:12:43.892Z,21.83
2022-11-14T02:15:11.025Z,21.27
2022-11-14T02:17:38.104Z,22.50
2022-11-14T02:20:08.410Z,23.17
2022-11-14T02:22:35.415Z,21.05
2022-11-14T02:25:02.931Z,22.40
2022-11-14T02:27:31.573Z,24.25
2022-11-14T02:30:11.787Z,20.80
2022-11-14T02:35:25.744Z,22.20
2022-11-14T02:37:52.750Z,22.30
2022-11-14T02:40:19.801Z,22.13
2022-11-14T02:42:46.777Z,21.65
2022-11-14T02:45:14.049Z,20.73
2022-11-14T02:47:41.132Z,23.40
2022-11-14T02:50:08.391Z,21.45
2022-11-14T02:52:35.732Z,21.45
2022-11-14T02:55:03.048Z,20.90
2022-11-14T02:57:30.078Z,22.67
2022-11-14T02:59:57.116Z,21.85
2022-11-14T03:02:24.022Z,23.00
2022-11-14T03:04:50.966Z,22.17
2022-11-14T03:07:18.010Z,22.98
2022-11-14T03:09:45.050Z,22.85
2022-11-14T03:12:12.178Z,22.73
2022-11-14T03:14:39.151Z,22.38
2022-11-14T03:17:06.156Z,22.40
2022-11-14T03:19:33.131Z,21.45
2022-11-14T03:22:00.068Z,21.75
2022-11-14T03:24:27.066Z,23.45
2022-11-14T03:26:54.072Z,23.23
2022-11-14T03:29:21.149Z,22.45
2022-11-14T03:31:48.166Z,23.65
2022-11-14T03:34:15.149Z,21.77
2022-11-14T03:36:42.128Z,21.30
2022-11-14T03:39:09.358Z,22.90
2022-11-14T03:41:36.345Z,21.50
2022-11-14T03:44:03.351Z,21.63
2022-11-14T03:46:30.367Z,23.00
2022-11-14T03:48:57.316Z,22.05
2022-11-14T03:51:24.322Z,23.58
2022-11-14T03:53:51.293Z,22.35
2022-11-14T03:56:18.294Z,21.38
2022-11-14T03:58:45.243Z,23.02
2022-11-14T04:01:12.332Z,23.33
2022-11-14T04:03:39.584Z,21.90
2022-11-14T04:06:06.747Z,21.50
2022-11-14T04:08:33.935Z,22.52
2022-11-14T04:11:01.233Z,22.55
2022-11-14T04:13:28.206Z,19.98
2022-11-14T04:15:56.776Z,23.83
2022-11-14T04:18:25.002Z,23.73
2022-11-14T04:20:52.806Z,23.33
2022-11-14T04:23:20.024Z,22.88
2022-11-14T04:25:47.473Z,22.02
2022-11-14T04:28:14.570Z,22.33
2022-11-14T04:30:41.751Z,24.38
2022-11-14T04:33:08.756Z,24.25
2022-11-14T04:35:35.705Z,21.92
2022-11-14T04:38:02.749Z,23.17
2022-11-14T04:40:29.791Z,22.38
2022-11-14T04:42:56.749Z,21.55
2022-11-14T04:45:23.815Z,20.10
2022-11-14T04:47:50.795Z,22.38
2022-11-14T04:50:17.956Z,21.70
2022-11-14T04:52:45.069Z,22.75
2022-11-14T04:55:12.081Z,22.63
2022-11-14T04:57:39.033Z,21.58
2022-11-14T05:00:07.445Z,23.27
2022-11-14T05:02:34.419Z,23.17
2022-11-14T05:05:01.852Z,23.60
2022-11-14T05:07:28.926Z,22.42
2022-11-14T05:09:55.877Z,25.25
2022-11-14T05:12:22.905Z,22.17
2022-11-14T05:14:49.917Z,22.65
2022-11-14T05:17:17.000Z,24.17
2022-11-14T05:19:43.977Z,23.52
2022-11-14T05:22:11.270Z,26.77
2022-11-14T05:24:38.225Z,25.85
2022-11-14T05:27:05.174Z,24.10
2022-11-14T05:29:32.181Z,24.13
2022-11-14T05:31:59.299Z,24.92
2022-11-14T05:34:26.780Z,23.73
2022-11-14T05:36:53.895Z,24.95
2022-11-14T05:39:20.900Z,25.88
2022-11-14T05:41:47.872Z,26.17
2022-11-14T05:44:14.847Z,24.40
2022-11-14T05:46:41.843Z,23.58
2022-11-14T05:49:08.789Z,25.08
2022-11-14T05:51:35.876Z,25.55
2022-11-14T05:54:02.916Z,23.95
2022-11-14T05:56:29.878Z,25.10
2022-11-14T05:58:56.836Z,24.00
2022-11-14T06:01:23.968Z,24.10
2022-11-14T06:03:51.066Z,24.73
2022-11-14T06:06:20.829Z,25.92
2022-11-14T06:08:48.826Z,25.85
2022-11-14T06:11:18.886Z,23.75
2022-11-14T06:13:46.993Z,24.95
2022-11-14T06:16:17.006Z,23.60
2022-11-14T06:18:44.807Z,25.55
2022-11-14T06:21:14.799Z,25.25
2022-11-14T06:23:42.522Z,26.63
2022-11-14T06:26:22.463Z,25.48
2022-11-14T06:28:51.590Z,24.70
2022-11-14T06:31:20.379Z,25.50
2022-11-14T06:33:47.889Z,25.33
2022-11-14T06:36:15.368Z,25.65
2022-11-14T06:38:43.621Z,23.73
2022-11-14T06:41:13.318Z,26.58
2022-11-14T06:43:45.300Z,24.75
2022-11-14T06:46:14.704Z,26.73
2022-11-14T06:48:42.950Z,27.25
2022-11-14T06:51:12.592Z,26.13
2022-11-14T06:53:40.290Z,24.48
2022-11-14T06:56:08.705Z,25.70
2022-11-14T06:58:42.334Z,24.52
2022-11-14T07:01:14.118Z,24.25
2022-11-14T07:03:42.455Z,26.92
2022-11-14T07:06:11.647Z,23.23
2022-11-14T07:08:38.702Z,24.38
2022-11-14T07:11:23.750Z,24.90
2022-11-14T07:13:55.958Z,23.08
2022-11-14T07:16:31.463Z,24.98
2022-11-14T07:19:02.728Z,24.92
2022-11-14T07:21:31.050Z,24.73
2022-11-14T07:23:58.420Z,24.90
2022-11-14T07:26:25.934Z,24.77
2022-11-14T07:28:56.587Z,28.98
2022-11-14T07:31:26.492Z,24.92
2022-11-14T07:33:54.681Z,27.98
2022-11-14T07:36:21.710Z,26.60
2022-11-14T07:38:48.684Z,25.27
2022-11-14T07:41:17.199Z,25.80
2022-11-14T07:43:45.030Z,25.83
2022-11-14T07:46:16.377Z,26.27
2022-11-14T07:48:44.446Z,27.65
2022-11-14T07:51:17.208Z,24.35
2022-11-14T07:53:44.686Z,26.15
2022-11-14T07:56:13.359Z,24.98
2022-11-14T07:58:41.665Z,25.63
2022-11-14T08:01:11.800Z,26.35
2022-11-14T08:03:45.097Z,25.52
2022-11-14T08:06:15.550Z,27.58
2022-11-14T08:08:42.597Z,25.38
2022-11-14T08:11:09.897Z,23.58
2022-11-14T08:13:36.926Z,26.05
2022-11-14T08:16:12.921Z,24.60
2022-11-14T08:18:40.828Z,23.67
2022-11-14T08:21:09.113Z,25.20
2022-11-14T08:23:36.450Z,25.13
2022-11-14T08:26:03.657Z,26.23
2022-11-14T08:28:31.122Z,26.17
2022-11-14T08:31:03.260Z,24.55
2022-11-14T08:33:31.528Z,25.63
2022-11-14T08:36:06.789Z,23.05
2022-11-14T08:38:35.200Z,24.60
2022-11-14T08:41:03.177Z,24.00
2022-11-14T08:43:31.778Z,24.05
2022-11-14T08:46:01.735Z,24.77
2022-11-14T08:48:30.152Z,22.90
2022-11-14T08:50:58.021Z,23.90
2022-11-14T08:53:25.394Z,24.00
2022-11-14T08:55:52.354Z,24.65
2022-11-14T08:58:19.306Z,23.92
2022-11-14T09:00:46.307Z,23.15
2022-11-14T09:03:16.239Z,25.23
2022-11-14T09:05:43.526Z,23.05
2022-11-14T09:08:10.496Z,23.77
2022-11-14T09:10:38.046Z,22.77
2022-11-14T09:13:05.010Z,22.27
2022-11-14T09:15:33.991Z,25.65
2022-11-14T09:18:01.054Z,24.17
2022-11-14T09:20:34.063Z,24.48
2022-11-14T09:23:04.470Z,23.80
2022-11-14T09:25:31.778Z,22.65
2022-11-14T09:27:59.105Z,23.75
2022-11-14T09:30:26.133Z,25.40
2022-11-14T09:32:53.196Z,24.45
2022-11-14T09:35:20.185Z,23.05
2022-11-14T09:37:47.168Z,24.65
2022-11-14T09:40:14.713Z,21.70
2022-11-14T09:43:06.866Z,23.10
2022-11-14T09:45:36.968Z,23.75
2022-11-14T09:48:16.488Z,22.38
2022-11-14T09:50:53.796Z,23.08
2022-11-14T09:53:31.509Z,22.38
2022-11-14T09:55:59.688Z,20.77
2022-11-14T09:58:27.871Z,20.48
2022-11-14T10:01:11.672Z,20.80
2022-11-14T10:04:04.832Z,22.08
2022-11-14T10:06:41.118Z,22.10
2022-11-14T10:09:37.217Z,20.15
2022-11-14T10:12:13.090Z,21.20
2022-11-14T10:15:11.148Z,19.92
2022-11-14T10:17:41.239Z,20.48
2022-11-14T10:20:26.150Z,21.15
2022-11-14T10:23:08.178Z,20.02
2022-11-14T10:25:55.177Z,21.00
2022-11-14T10:28:54.086Z,22.00
2022-11-14T10:31:30.023Z,18.75
2022-11-14T10:34:18.542Z,19.85
2022-11-14T10:36:51.436Z,21.27
2022-11-14T10:39:24.743Z,19.35
2022-11-14T10:41:58.840Z,18.85
2022-11-14T10:44:38.356Z,19.70
2022-11-14T10:47:13.993Z,18.42
2022-11-14T10:49:42.379Z,19.23
2022-11-14T10:52:19.889Z,18.20
2022-11-14T10:54:56.598Z,19.95
2022-11-14T10:57:23.931Z,17.17
2022-11-14T10:59:56.690Z,18.33
2022-11-14T11:02:23.852Z,19.73
2022-11-14T11:04:50.828Z,17.90
2022-11-14T11:07:45.662Z,18.13
2022-11-14T11:10:42.154Z,17.48
2022-11-14T11:13:15.762Z,17.88
2022-11-14T11:15:43.479Z,18.58
2022-11-14T11:18:29.108Z,17.42
2022-11-14T11:21:06.491Z,17.25
2022-11-14T11:23:34.773Z,18.45
2022-11-14T11:26:09.527Z,17.38
2022-11-14T11:28:37.597Z,17.85
2022-11-14T11:31:11.082Z,17.00
2022-11-14T11:33:39.952Z,19.02
2022-11-14T11:36:16.441Z,16.90
2022-11-14T11:38:44.536Z,17.95
2022-11-14T11:44:19.579Z,17.25
2022-11-14T11:47:01.097Z,19.60
2022-11-14T11:49:28.062Z,16.70
2022-11-14T11:51:57.216Z,17.98
2022-11-14T11:54:33.664Z,17.58
2022-11-14T11:57:04.264Z,17.38
2022-11-14T11:59:40.354Z,16.95
2022-11-14T12:02:27.411Z,16.15
2022-11-14T12:04:57.101Z,16.88
2022-11-14T12:07:41.469Z,16.98
2022-11-14T12:10:17.985Z,17.13
2022-11-14T12:12:44.893Z,16.63
2022-11-14T12:15:24.506Z,16.27
2022-11-14T12:17:57.214Z,17.05
2022-11-14T12:21:13.686Z,15.90
2022-11-14T12:23:52.606Z,15.23
2022-11-14T12:26:48.501Z,16.48
2022-11-14T12:29:31.386Z,16.00
2022-11-14T12:32:05.031Z,15.75
2022-11-14T12:34:45.666Z,16.95
2022-11-14T12:37:38.305Z,15.15
2022-11-14T12:40:09.014Z,14.77
2022-11-14T12:42:36.230Z,15.52
2022-11-14T12:45:03.337Z,16.50
2022-11-14T12:47:30.330Z,15.68
2022-11-14T12:49:59.820Z,15.43
2022-11-14T12:52:44.802Z,15.57
2022-11-14T12:55:26.998Z,15.50
2022-11-14T12:58:07.077Z,15.52
2022-11-14T13:00:46.041Z,14.38
2022-11-14T13:03:39.209Z,15.50
2022-11-14T13:06:24.054Z,14.75
2022-11-14T13:09:21.069Z,16.77
2022-11-14T13:12:07.609Z,15.10
2022-11-14T13:15:13.049Z,14.70
2022-11-14T13:17:58.961Z,15.30
2022-11-14T13:20:54.545Z,15.77
2022-11-14T13:23:28.446Z,17.30
2022-11-14T13:26:10.614Z,14.90
2022-11-14T13:28:37.634Z,13.65
2022-11-14T13:31:17.093Z,16.27
2022-11-14T13:33:51.408Z,13.63
2022-11-14T13:36:40.444Z,15.85
2022-11-14T13:39:10.393Z,15.32
2022-11-14T13:42:06.676Z,15.93
2022-11-14T13:45:18.049Z,15.73
2022-11-14T13:48:12.604Z,14.70
2022-11-14T13:50:41.221Z,16.27
2022-11-14T13:53:14.266Z,15.57
2022-11-14T13:55:59.512Z,14.90
2022-11-14T13:58:47.774Z,15.80
2022-11-14T14:01:29.812Z,16.55
2022-11-14T14:04:15.540Z,16.65
2022-11-14T14:07:04.426Z,16.50
2022-11-14T14:09:52.486Z,16.90
2022-11-14T14:12:53.620Z,16.20
2022-11-14T14:15:33.808Z,17.10
2022-11-14T14:18:00.995Z,17.63
2022-11-14T14:20:50.960Z,17.70
2022-11-14T14:23:35.912Z,18.75
2022-11-14T14:26:18.559Z,17.00
2022-11-14T14:28:53.873Z,17.85
2022-11-14T14:31:24.126Z,18.50
2022-11-14T14:33:52.462Z,19.52
2022-11-14T14:36:25.466Z,17.80
2022-11-14T14:39:18.007Z,18.83
2022-11-14T14:41:45.335Z,18.80
2022-11-14T14:44:27.347Z,19.50
2022-11-14T14:46:55.591Z,18.15
2022-11-14T14:49:30.640Z,20.25
2022-11-14T14:51:58.846Z,19.20
2022-11-14T14:54:29.565Z,19.50
2022-11-14T14:57:00.990Z,20.63
2022-11-14T14:59:30.895Z,19.20
2022-11-14T15:01:58.701Z,21.67
2022-11-14T15:04:28.902Z,21.40
2022-11-14T15:06:57.753Z,21.42
2022-11-14T15:09:32.230Z,21.17
2022-11-14T15:12:01.511Z,22.98
2022-11-14T15:14:32.356Z,21.90
2022-11-14T15:17:00.910Z,22.50
2022-11-14T15:19:46.167Z,21.85
2022-11-14T15:22:16.108Z,23.77
2022-11-14T15:24:43.245Z,22.30
2022-11-14T15:27:15.842Z,24.17
2022-11-14T15:29:53.194Z,23.05
2022-11-14T15:32:23.855Z,21.95
2022-11-14T15:35:25.683Z,24.40
2022-11-14T15:38:28.818Z,23.77
2022-11-14T15:41:09.696Z,25.30
2022-11-14T15:43:51.726Z,24.10
2022-11-14T15:46:40.325Z,24.50
2022-11-14T15:49:19.983Z,25.90
2022-11-14T15:51:48.929Z,24.67
2022-11-14T15:54:38.022Z,24.65
2022-11-14T15:57:16.735Z,25.35
2022-11-14T15:59:43.992Z,26.85
2022-11-14T16:02:20.885Z,25.60
2022-11-14T16:04:49.748Z,26.48
2022-11-14T16:07:20.386Z,26.67
2022-11-14T16:09:49.021Z,28.48
2022-11-14T16:12:16.639Z,25.27
2022-11-14T16:14:43.984Z,25.95
2022-11-14T16:17:17.966Z,27.33
2022-11-14T16:19:45.203Z,27.58
2022-11-14T16:22:15.953Z,26.98
2022-11-14T16:24:42.935Z,27.55
2022-11-14T16:27:10.439Z,27.65
2022-11-14T16:29:37.427Z,30.10
2022-11-14T16:32:04.583Z,29.30
2022-11-14T16:34:31.820Z,27.63
2022-11-14T16:37:01.211Z,29.02
2022-11-14T16:39:29.773Z,29.48
2022-11-14T16:42:03.320Z,26.67
2022-11-14T16:44:35.863Z,28.20
2022-11-14T16:47:08.462Z,28.55
2022-11-14T16:49:36.211Z,29.88
2022-11-14T16:52:09.513Z,43.05
2022-11-14T16:54:37.813Z,33.85
2022-11-14T16:57:05.921Z,29.17
2022-11-14T16:59:33.736Z,31.10
2022-11-14T17:02:01.974Z,35.95
2022-11-14T17:04:29.975Z,28.70
2022-11-14T17:06:57.437Z,29.67
2022-11-14T17:09:24.554Z,27.30
2022-11-14T17:11:52.548Z,29.45
2022-11-14T17:14:20.981Z,29.27
2022-11-14T17:16:49.391Z,31.60
2022-11-14T17:19:16.677Z,32.92
2022-11-14T17:21:44.817Z,31.00
2022-11-14T17:24:15.535Z,29.48
2022-11-14T17:26:43.006Z,29.45
2022-11-14T17:29:13.716Z,29.63
2022-11-14T17:31:46.718Z,30.48
2022-11-14T17:34:15.087Z,29.27
2022-11-14T17:36:43.872Z,29.55
2022-11-14T17:39:12.024Z,29.50
2022-11-14T17:41:43.398Z,30.75
2022-11-14T17:44:14.577Z,30.70
2022-11-14T17:46:43.144Z,30.17
2022-11-14T17:49:11.931Z,29.90
2022-11-14T17:51:40.809Z,29.70
2022-11-14T17:54:10.238Z,30.55
2022-11-14T17:56:45.780Z,28.70
2022-11-14T17:59:16.187Z,31.38
2022-11-14T18:01:44.630Z,31.23
2022-11-14T18:04:17.518Z,28.38
2022-11-14T18:07:22.757Z,28.60
2022-11-14T18:09:51.872Z,28.30
2022-11-14T18:12:20.417Z,27.30
2022-11-14T18:14:47.810Z,27.65
2022-11-14T18:17:15.321Z,29.30
2022-11-14T18:19:42.898Z,27.55
2022-11-14T18:22:10.818Z,27.77
2022-11-14T18:24:38.237Z,27.23
2022-11-14T18:27:06.294Z,28.08
2022-11-14T18:29:35.129Z,29.17
2022-11-14T18:32:02.992Z,27.13
2022-11-14T18:34:30.757Z,26.55
2022-11-14T18:36:58.653Z,27.05
2022-11-14T18:39:27.192Z,25.95
2022-11-14T18:41:54.885Z,25.83
2022-11-14T18:44:24.786Z,25.45
2022-11-14T18:46:54.742Z,26.83
2022-11-14T18:49:22.619Z,28.48
2022-11-14T18:51:50.431Z,28.88
2022-11-14T18:54:19.232Z,29.00
2022-11-14T18:56:47.075Z,28.00
2022-11-14T18:59:15.144Z,27.90
2022-11-14T19:01:42.783Z,28.10
2022-11-14T19:04:12.159Z,27.95
2022-11-14T19:06:42.013Z,26.27
2022-11-14T19:09:13.218Z,24.00
2022-11-14T19:11:59.054Z,24.95
2022-11-14T19:14:30.077Z,22.98
2022-11-14T19:16:57.880Z,22.52
2022-11-14T19:19:26.011Z,23.25
2022-11-14T19:21:53.624Z,21.73
2022-11-14T19:24:21.123Z,23.23
2022-11-14T19:26:49.396Z,20.83
2022-11-14T19:29:18.052Z,20.85
2022-11-14T19:31:45.738Z,21.58
2022-11-14T19:34:13.670Z,22.88
2022-11-14T19:39:30.738Z,21.35
2022-11-14T19:41:58.573Z,23.90
2022-11-14T19:44:26.632Z,23.30
2022-11-14T19:46:54.309Z,25.23
2022-11-14T19:49:23.950Z,21.70
2022-11-14T19:51:51.721Z,23.42
2022-11-14T19:54:19.797Z,23.58
2022-11-14T19:56:47.694Z,24.65
2022-11-14T19:59:18.957Z,26.02
2022-11-14T20:01:56.119Z,25.20
2022-11-14T20:04:26.212Z,25.77
2022-11-14T20:06:53.777Z,26.77
2022-11-14T20:09:21.938Z,27.58
2022-11-14T20:11:49.429Z,28.90
2022-11-14T20:14:18.003Z,27.52
2022-11-14T20:16:47.889Z,26.00
2022-11-14T20:19:16.999Z,30.98
2022-11-14T20:21:44.946Z,29.65
2022-11-14T20:24:14.982Z,30.33
2022-11-14T20:26:42.814Z,30.85
2022-11-14T20:29:11.980Z,31.67
2022-11-14T20:31:39.546Z,31.25
2022-11-14T20:34:07.544Z,31.48
2022-11-14T20:36:56.742Z,31.85
2022-11-14T20:39:22.573Z,30.80
2022-11-14T20:41:51.604Z,31.73
2022-11-14T20:44:21.317Z,31.40
2022-11-14T20:46:48.767Z,31.63
2022-11-14T20:49:19.321Z,32.60
2022-11-14T20:51:49.532Z,33.28
2022-11-14T20:54:16.974Z,32.75
2022-11-14T20:56:44.681Z,31.90
2022-11-14T20:59:12.306Z,30.92
2022-11-14T21:01:43.819Z,30.48
2022-11-14T21:04:11.254Z,30.60
2022-11-14T21:06:38.713Z,30.35
2022-11-14T21:09:06.358Z,30.67
2022-11-14T21:11:33.585Z,30.00
2022-11-14T21:14:00.938Z,29.63
2022-11-14T21:16:36.843Z,30.98
2022-11-14T21:19:05.704Z,29.98
2022-11-14T21:21:37.875Z,30.52
2022-11-14T21:24:05.580Z,30.42
2022-11-14T21:26:36.325Z,25.85
2022-11-14T21:29:10.240Z,29.83
2022-11-14T21:31:43.226Z,28.05
2022-11-14T21:34:15.429Z,27.90
2022-11-14T21:36:46.024Z,27.67
2022-11-14T21:39:15.722Z,27.48
2022-11-14T21:41:45.323Z,27.48
2022-11-14T21:44:14.659Z,27.15
2022-11-14T21:46:42.042Z,27.10
2022-11-14T21:49:10.087Z,26.77
2022-11-14T21:51:37.078Z,27.40
2022-11-14T21:54:05.301Z,26.95
2022-11-14T21:56:37.352Z,27.63
2022-11-14T21:59:21.643Z,26.75
2022-11-14T22:02:09.315Z,29.83
2022-11-14T22:04:37.529Z,26.13
2022-11-14T22:07:08.997Z,24.15
2022-11-14T22:09:39.808Z,26.33
2022-11-14T22:12:09.957Z,27.30
2022-11-14T22:14:36.945Z,26.75
2022-11-14T22:17:03.941Z,26.25
2022-11-14T22:19:30.931Z,27.15
2022-11-14T22:21:57.908Z,27.73
2022-11-14T22:24:24.946Z,25.30
2022-11-14T22:26:52.280Z,25.98
2022-11-14T22:29:19.254Z,27.63
2022-11-14T22:31:46.350Z,25.48
2022-11-14T22:34:13.969Z,28.10
2022-11-14T22:36:41.006Z,24.63
2022-11-14T22:39:07.952Z,28.08
2022-11-14T22:41:34.966Z,29.67
2022-11-14T22:44:02.309Z,28.38
2022-11-14T22:46:30.080Z,27.83
2022-11-14T22:48:58.290Z,26.90
2022-11-14T22:51:27.382Z,30.33
2022-11-14T22:53:56.501Z,29.27
2022-11-14T22:56:27.783Z,27.88
2022-11-14T22:58:55.114Z,29.95
2022-11-14T23:01:32.261Z,28.73
2022-11-14T23:04:01.870Z,28.88
2022-11-14T23:06:30.527Z,27.42
2022-11-14T23:08:58.674Z,27.80
2022-11-14T23:11:29.189Z,26.33
2022-11-14T23:13:57.498Z,28.02
2022-11-14T23:16:26.915Z,26.98
2022-11-14T23:18:56.703Z,26.13
2022-11-14T23:21:29.279Z,26.08
2022-11-14T23:24:07.145Z,24.65
2022-11-14T23:26:34.685Z,24.63
2022-11-14T23:29:01.710Z,24.20
2022-11-14T23:31:28.785Z,24.60
2022-11-14T23:33:57.959Z,24.52
2022-11-14T23:36:25.362Z,24.65
2022-11-14T23:38:54.019Z,22.85
2022-11-14T23:41:23.831Z,22.05
2022-11-14T23:43:50.859Z,23.63
2022-11-14T23:46:17.893Z,21.60
2022-11-14T23:48:44.882Z,21.58
2022-11-14T23:51:13.939Z,23.80
2022-11-14T23:53:42.124Z,20.85
2022-11-14T23:56:13.482Z,21.02
2022-11-14T23:58:41.769Z,21.52
